This is the latest recevied weather packets stored in our database for station/object kj4yre. If no packets are shown the sender has not sent any weather packets the latest 10 day(s).
| Time | Temp. | Humidity | Pressure | Rain* | Wind** | Luminosity | Snow |
|---|---|---|---|---|---|---|---|
| 1777188736 | 11.11° C | 100% | 1011.8 hPa | 0.25 mm | - | - | - |
| 1777188138 | 11.11° C | 100% | 1011.7 hPa | 0 mm | - | - | - |
| 1777187538 | 11.67° C | 100% | 1011.7 hPa | 0 mm | - | - | - |
| 1777187237 | 11.67° C | 100% | 1011.6 hPa | 0 mm | - | - | - |
| 1777186338 | 11.67° C | 100% | 1011.5 hPa | 0 mm | - | - | - |
| 1777185736 | 11.67° C | 100% | 1011.7 hPa | 0 mm | - | - | - |
| 1777185437 | 11.67° C | 100% | 1011.7 hPa | 0 mm | - | - | - |
| 1777185138 | 11.67° C | 100% | 1011.6 hPa | 0 mm | - | - | - |
| 1777184835 | 11.67° C | 100% | 1011.5 hPa | 0 mm | - | - | - |
| 1777183335 | 12.22° C | 100% | 1011.7 hPa | 0 mm | - | - | - |
| 1777182137 | 12.22° C | 100% | 1011.7 hPa | 0 mm | - | - | - |
| 1777181235 | 12.22° C | 100% | 1012 hPa | 0 mm | - | - | - |
| 1777177036 | 13.33° C | 100% | 1011.6 hPa | 0.25 mm | - | - | - |
| 1777176436 | 13.33° C | 100% | 1011.4 hPa | 0.25 mm | - | - | - |
| 1777174937 | 13.33° C | 100% | 1010.4 hPa | 0.25 mm | - | - | - |
| 1777174336 | 13.33° C | 100% | 1010.5 hPa | 0 mm | - | - | - |
| 1777174038 | 13.33° C | 100% | 1010.6 hPa | 0 mm | - | - | - |
| 1777173435 | 13.33° C | 100% | 1010.5 hPa | 0 mm | - | - | - |
| 1777173136 | 13.33° C | 100% | 1010.3 hPa | 0 mm | - | - | - |
| 1777172837 | 13.33° C | 100% | 1010.3 hPa | 0 mm | - | - | - |
| 1777171336 | 13.33° C | 100% | 1009.7 hPa | 0.51 mm | - | - | - |
| 1777167736 | 13.33° C | 100% | 1010.8 hPa | 2.54 mm | - | - | - |
| 1777165635 | 13.33° C | 100% | 1011.3 hPa | 5.84 mm | - | - | - |
| 1777165336 | 13.89° C | 100% | 1011.3 hPa | 5.84 mm | - | - | - |
| 1777164736 | 13.89° C | 100% | 1011.1 hPa | 5.84 mm | - | - | - |
* Rain latest hour (hover to see other rain measurements)
** Current wind speed in m/s (hover to see current wind gust speed)